Time;durP1;ratioP1;P1;durP2;ratioP2;P2;SDS_P1;SDS_P2;PMS_P1;PMS_P2;Temp;Humidity;BMP_temperature;BMP_pressure;BME280_temperature;BME280_humidity;BME280_pressure;Samples;Min_cycle;Max_cycle;Signal;HPM_P1;HPM_P2
2023/12/25 00:00:40;;;;;;;0.40;0.20;;;;;;;12.45;100.00;98382.06;180828;1268;57923;-65
2023/12/25 00:05:03;;;;;;;1.30;0.40;;;;;;;12.49;100.00;98381.45;180796;1268;43848;-65
2023/12/25 00:09:06;;;;;;;2.90;0.50;;;;;;;12.51;100.00;98388.39;180844;1269;43620;-65
2023/12/25 00:13:09;;;;;;;0.40;0.20;;;;;;;12.56;100.00;98377.20;180825;1268;43927;-64
2023/12/25 00:17:21;;;;;;;0.10;0.10;;;;;;;12.58;100.00;98383.67;180848;1268;43771;-64
2023/12/25 00:21:26;;;;;;;0.40;0.40;;;;;;;12.56;100.00;98389.78;180848;1268;56987;-64
2023/12/25 00:25:29;;;;;;;1.10;0.20;;;;;;;12.59;100.00;98392.48;180865;1268;43806;-64
2023/12/25 00:29:32;;;;;;;1.60;1.20;;;;;;;12.62;100.00;98395.70;180822;1268;43056;-64
2023/12/25 00:33:35;;;;;;;0.30;0.20;;;;;;;12.64;100.00;98396.10;180828;1268;44045;-64
2023/12/25 00:37:39;;;;;;;0.40;0.40;;;;;;;12.65;100.00;98389.21;180857;1268;43056;-63
2023/12/25 00:41:42;;;;;;;0.30;0.20;;;;;;;12.65;100.00;98405.09;180856;1269;58651;-63
2023/12/25 00:45:45;;;;;;;0.40;0.10;;;;;;;12.64;100.00;98394.20;180847;1269;43803;-64
2023/12/25 00:49:48;;;;;;;1.80;0.30;;;;;;;12.62;100.00;98396.33;180812;1268;43467;-64
2023/12/25 00:53:56;;;;;;;0.20;0.20;;;;;;;12.59;100.00;98396.60;180857;1269;43459;-64
2023/12/25 00:57:59;;;;;;;0.60;0.30;;;;;;;12.59;100.00;98394.96;180832;1268;43783;-64
2023/12/25 01:02:08;;;;;;;0.60;0.40;;;;;;;12.65;100.00;98399.63;180814;1268;57913;-64
2023/12/25 01:06:11;;;;;;;0.20;0.10;;;;;;;12.64;100.00;98389.48;180839;1268;43760;-63
2023/12/25 01:10:14;;;;;;;0.30;0.30;;;;;;;12.67;100.00;98392.36;180834;1268;43081;-63
2023/12/25 01:14:17;;;;;;;0.50;0.40;;;;;;;12.69;100.00;98389.34;180832;1268;43095;-62
2023/12/25 01:18:20;;;;;;;0.20;0.10;;;;;;;12.69;100.00;98397.96;180828;1270;43342;-63
2023/12/25 01:22:23;;;;;;;1.90;0.10;;;;;;;12.67;100.00;98401.14;180625;1272;58375;-62
2023/12/25 01:26:26;;;;;;;0.60;0.50;;;;;;;12.64;100.00;98391.30;180250;1274;43106;-63
2023/12/25 01:30:29;;;;;;;0.10;0.10;;;;;;;12.64;100.00;98407.70;180327;1273;43868;-65
2023/12/25 01:34:43;;;;;;;0.40;0.20;;;;;;;12.63;100.00;98417.21;180267;1274;43196;-64
2023/12/25 01:38:46;;;;;;;0.50;0.20;;;;;;;12.67;100.00;98402.49;180268;1274;43842;-63
2023/12/25 01:42:49;;;;;;;0.20;0.10;;;;;;;12.70;100.00;98422.20;180151;1274;58245;-64
2023/12/25 01:46:53;;;;;;;0.40;0.40;;;;;;;12.74;100.00;98427.33;180175;1274;43323;-63
2023/12/25 01:50:59;;;;;;;0.10;0.10;;;;;;;12.74;100.00;98430.56;180123;1276;43026;-62
2023/12/25 01:55:03;;;;;;;0.60;0.60;;;;;;;12.70;100.00;98441.31;180279;1275;43697;-63
2023/12/25 01:59:06;;;;;;;0.30;0.10;;;;;;;12.71;100.00;98441.02;179960;1274;43397;-63
2023/12/25 02:03:16;;;;;;;0.20;0.20;;;;;;;12.69;100.00;98438.89;180180;1274;57786;-62
2023/12/25 02:07:20;;;;;;;2.00;0.60;;;;;;;12.69;100.00;98464.30;180216;1273;43098;-63
2023/12/25 02:11:23;;;;;;;0.20;0.20;;;;;;;12.71;100.00;98459.52;180290;1274;43725;-63
2023/12/25 02:15:26;;;;;;;1.20;0.20;;;;;;;12.78;100.00;98460.87;180216;1274;43565;-62
2023/12/25 02:19:38;;;;;;;0.70;0.40;;;;;;;12.78;100.00;98469.86;180263;1274;43103;-63
2023/12/25 02:23:44;;;;;;;2.40;0.20;;;;;;;12.84;100.00;98469.16;179791;1276;58216;-62
2023/12/25 02:27:47;;;;;;;1.00;0.30;;;;;;;12.83;100.00;98446.13;179696;1276;43711;-62
2023/12/25 02:31:50;;;;;;;0.40;0.10;;;;;;;12.88;100.00;98454.77;179664;1276;43063;-63
2023/12/25 02:35:58;;;;;;;1.20;0.40;;;;;;;12.68;100.00;98470.52;179697;1276;43774;-63
2023/12/25 02:40:00;;;;;;;0.40;0.20;;;;;;;12.62;100.00;98463.38;179553;1276;43056;-63
2023/12/25 02:44:06;;;;;;;0.50;0.20;;;;;;;12.56;100.00;98470.50;179665;1276;57940;-63
2023/12/25 02:48:09;;;;;;;0.30;0.30;;;;;;;12.49;100.00;98500.81;179722;1276;43938;-64
2023/12/25 02:52:14;;;;;;;0.30;0.30;;;;;;;12.44;100.00;98506.39;179773;1276;43419;-63
2023/12/25 02:56:16;;;;;;;0.20;0.10;;;;;;;12.38;100.00;98512.95;179661;1276;43315;-62
2023/12/25 03:00:20;;;;;;;0.20;0.20;;;;;;;12.32;100.00;98523.64;179753;1276;42974;-62
2023/12/25 03:04:22;;;;;;;0.50;0.40;;;;;;;12.25;100.00;98528.88;179836;1276;59322;-63
2023/12/25 03:10:55;;;;;;;2.60;0.80;;;;;;;12.18;100.00;98535.02;175608;1289;566987;-87
2023/12/25 03:14:58;;;;;;;0.50;0.10;;;;;;;12.12;100.00;98549.36;179492;1266;58023;-88
2023/12/25 03:19:02;;;;;;;0.50;0.10;;;;;;;12.04;100.00;98541.80;178917;1267;44739;-87
2023/12/25 03:23:10;;;;;;;0.90;0.20;;;;;;;11.94;100.00;98540.42;179567;1263;262316;-90
2023/12/25 03:27:13;;;;;;;3.00;0.70;;;;;;;11.84;100.00;98557.00;180335;1254;45977;-86
2023/12/25 03:31:16;;;;;;;0.20;0.10;;;;;;;11.76;100.00;98557.34;179368;1256;46019;-87
2023/12/25 03:35:20;;;;;;;1.00;0.00;;;;;;;11.74;100.00;98547.70;180305;1256;56962;-85
2023/12/25 03:39:24;;;;;;;0.20;0.10;;;;;;;11.74;100.00;98534.33;180522;1254;46063;-88
2023/12/25 03:43:28;;;;;;;0.90;0.50;;;;;;;11.75;100.00;98538.13;180148;1254;44151;-88
2023/12/25 03:47:38;;;;;;;2.90;0.20;;;;;;;11.82;100.00;98552.81;180834;1256;44069;-84
2023/12/25 03:51:42;;;;;;;0.40;0.40;;;;;;;11.93;100.00;98542.84;181056;1251;44662;-89
2023/12/25 03:55:46;;;;;;;0.40;0.20;;;;;;;12.03;100.00;98541.52;180277;1251;59427;-88
2023/12/25 03:59:50;;;;;;;0.30;0.10;;;;;;;12.11;100.00;98544.33;180379;1251;46213;-89
2023/12/25 04:03:54;;;;;;;0.50;0.30;;;;;;;12.16;100.00;98542.50;180700;1255;45405;-88
2023/12/25 04:07:58;;;;;;;0.40;0.10;;;;;;;12.28;100.00;98541.00;180290;1251;45961;-88
2023/12/25 04:12:02;;;;;;;0.30;0.10;;;;;;;12.37;100.00;98546.13;180570;1251;46143;-89
2023/12/25 04:16:06;;;;;;;1.10;0.40;;;;;;;12.42;100.00;98549.45;180518;1256;59533;-87
2023/12/25 04:20:12;;;;;;;1.90;0.20;;;;;;;12.41;100.00;98556.71;180302;1251;44783;-90
2023/12/25 04:24:16;;;;;;;0.20;0.20;;;;;;;12.42;100.00;98553.88;180681;1253;44871;-88
2023/12/25 04:28:19;;;;;;;0.60;0.50;;;;;;;12.45;100.00;98544.68;179713;1253;46040;-90
2023/12/25 04:32:23;;;;;;;2.00;0.70;;;;;;;12.54;100.00;98562.11;180518;1254;45917;-86
2023/12/25 04:36:27;;;;;;;0.50;0.20;;;;;;;12.55;100.00;98568.73;180641;1254;59760;-89
2023/12/25 04:40:31;;;;;;;2.30;0.40;;;;;;;12.54;100.00;98583.52;180125;1251;45990;-89
2023/12/25 04:44:35;;;;;;;0.30;0.10;;;;;;;12.57;100.00;98578.17;180325;1253;45316;-87
2023/12/25 04:48:39;;;;;;;0.90;0.30;;;;;;;12.53;100.00;98596.73;180891;1253;44589;-86
2023/12/25 04:52:47;;;;;;;0.70;0.70;;;;;;;12.42;100.00;98601.80;181042;1251;44261;-85
2023/12/25 04:56:56;;;;;;;1.80;0.60;;;;;;;12.27;100.00;98603.84;180928;1254;60150;-89
2023/12/25 05:01:01;;;;;;;0.40;0.30;;;;;;;12.18;100.00;98610.39;180832;1253;46002;-87
2023/12/25 05:05:07;;;;;;;16.10;0.60;;;;;;;12.12;100.00;98620.09;180464;1251;46044;-88
2023/12/25 05:09:11;;;;;;;0.70;0.20;;;;;;;12.04;100.00;98613.94;180627;1254;44467;-85
2023/12/25 05:13:16;;;;;;;0.60;0.20;;;;;;;11.92;100.00;98599.10;180418;1254;44694;-87
2023/12/25 05:17:20;;;;;;;0.50;0.40;;;;;;;11.85;100.00;98601.83;180580;1252;60500;-87
2023/12/25 05:21:25;;;;;;;0.90;0.70;;;;;;;11.76;100.00;98593.56;180551;1252;45919;-85
2023/12/25 05:25:30;;;;;;;0.20;0.20;;;;;;;11.69;100.00;98597.02;180333;1252;45968;-91
2023/12/25 05:29:34;;;;;;;1.40;0.30;;;;;;;11.66;100.00;98600.73;179638;1251;45987;-89
2023/12/25 05:33:37;;;;;;;0.40;0.30;;;;;;;11.61;100.00;98589.08;180268;1253;45621;-90
2023/12/25 05:37:41;;;;;;;1.30;0.70;;;;;;;11.64;100.00;98582.92;180929;1252;58106;-85
2023/12/25 05:41:46;;;;;;;0.30;0.20;;;;;;;11.67;100.00;98587.85;180635;1253;45942;-85
2023/12/25 05:45:51;;;;;;;1.90;0.60;;;;;;;11.73;100.00;98581.73;180612;1251;45221;-90
2023/12/25 05:49:56;;;;;;;0.40;0.40;;;;;;;11.77;100.00;98591.50;180500;1253;44697;-89
2023/12/25 05:54:01;;;;;;;0.30;0.30;;;;;;;11.88;100.00;98601.09;180321;1254;44574;-87
2023/12/25 05:58:06;;;;;;;3.10;0.20;;;;;;;11.98;100.00;98621.67;180421;1254;60051;-90
2023/12/25 06:02:11;;;;;;;0.20;0.10;;;;;;;12.02;100.00;98626.37;180392;1254;45976;-89
2023/12/25 06:06:18;;;;;;;0.60;0.60;;;;;;;12.05;100.00;98624.16;180399;1253;46018;-89
2023/12/25 06:10:24;;;;;;;0.50;0.30;;;;;;;11.98;100.00;98620.45;180908;1254;45926;-89
2023/12/25 06:14:28;;;;;;;0.20;0.10;;;;;;;11.97;100.00;98624.84;180555;1253;45773;-87
2023/12/25 06:18:33;;;;;;;1.50;0.10;;;;;;;11.87;100.00;98632.70;180220;1251;58067;-86
2023/12/25 06:22:40;;;;;;;0.70;0.20;;;;;;;11.83;100.00;98646.28;180440;1253;46095;-85
2023/12/25 06:26:44;;;;;;;0.60;0.30;;;;;;;11.76;100.00;98645.17;180869;1253;44801;-88
2023/12/25 06:30:51;;;;;;;0.20;0.20;;;;;;;11.73;100.00;98659.66;180075;1253;44477;-90
2023/12/25 06:34:56;;;;;;;0.80;0.40;;;;;;;11.67;100.00;98657.08;180668;1253;46019;-85
2023/12/25 06:39:00;;;;;;;0.50;0.30;;;;;;;11.60;100.00;98662.98;180607;1251;60315;-91
2023/12/25 06:43:04;;;;;;;0.20;0.20;;;;;;;11.57;100.00;98662.98;180511;1253;44438;-88
2023/12/25 06:47:22;;;;;;;1.50;0.30;;;;;;;11.56;100.00;98663.47;181021;1254;44538;-84
2023/12/25 06:51:26;;;;;;;0.20;0.20;;;;;;;11.54;100.00;98672.73;181528;1253;45922;-90
2023/12/25 06:55:29;;;;;;;1.80;0.50;;;;;;;11.50;100.00;98665.52;180185;1255;46012;-89
2023/12/25 07:00:05;;;;;;;0.40;0.20;;;;;;;11.48;100.00;98671.48;180913;1249;87759;-64
2023/12/25 07:04:11;;;;;;;0.60;0.40;;;;;;;11.47;100.00;98666.06;180424;1255;87346;-65
2023/12/25 07:08:14;;;;;;;0.30;0.10;;;;;;;11.54;100.00;98669.04;180174;1260;43776;-65
2023/12/25 07:12:18;;;;;;;0.20;0.10;;;;;;;11.55;100.00;98671.23;180019;1260;45104;-65
2023/12/25 07:16:23;;;;;;;0.40;0.30;;;;;;;11.56;100.00;98671.98;180191;1259;44914;-64
2023/12/25 07:20:28;;;;;;;0.70;0.30;;;;;;;11.60;100.00;98682.20;180105;1259;59528;-64
2023/12/25 07:24:31;;;;;;;0.20;0.20;;;;;;;11.64;100.00;98678.95;180105;1259;43783;-65
2023/12/25 07:28:35;;;;;;;2.30;0.40;;;;;;;11.66;100.00;98684.54;180057;1260;44893;-65
2023/12/25 07:32:40;;;;;;;0.40;0.10;;;;;;;11.72;100.00;98696.01;179902;1260;45901;-64
2023/12/25 07:36:47;;;;;;;0.70;0.40;;;;;;;11.70;100.00;98705.17;179870;1261;43839;-64
2023/12/25 07:40:51;;;;;;;1.10;0.10;;;;;;;11.74;100.00;98703.62;180094;1260;58254;-63
2023/12/25 07:44:54;;;;;;;0.90;0.40;;;;;;;11.77;100.00;98703.73;180235;1259;43793;-62
2023/12/25 07:49:05;;;;;;;0.40;0.30;;;;;;;11.78;100.00;98707.53;180512;1259;46084;-62
2023/12/25 07:53:09;;;;;;;1.20;0.50;;;;;;;11.77;100.00;98704.86;180350;1259;44812;-62
2023/12/25 07:57:13;;;;;;;4.10;0.40;;;;;;;11.77;100.00;98722.09;180072;1259;45913;-62
2023/12/25 08:01:20;;;;;;;0.50;0.40;;;;;;;11.71;100.00;98726.11;180161;1260;58311;-62
2023/12/25 08:05:23;;;;;;;0.50;0.30;;;;;;;11.68;100.00;98732.14;180071;1259;46132;-62
2023/12/25 08:09:54;;;;;;;2.00;0.60;;;;;;;11.62;100.00;98736.92;179955;1259;43751;-62
2023/12/25 08:13:59;;;;;;;0.70;0.70;;;;;;;11.36;100.00;98747.89;179911;1260;44310;-62
2023/12/25 08:18:09;;;;;;;3.40;1.00;;;;;;;11.21;100.00;98765.64;180032;1259;45249;-62
2023/12/25 08:22:13;;;;;;;1.00;0.60;;;;;;;10.99;100.00;98791.39;180134;1260;57949;-62
2023/12/25 08:27:09;;;;;;;1.00;0.50;;;;;;;10.79;100.00;98803.79;180211;1259;45937;-63
2023/12/25 08:31:12;;;;;;;3.40;0.80;;;;;;;10.71;100.00;98792.28;180128;1260;44436;-62
2023/12/25 08:35:15;;;;;;;1.40;0.60;;;;;;;10.83;100.00;98791.36;179961;1261;44641;-62
2023/12/25 08:39:19;;;;;;;2.50;0.60;;;;;;;10.92;100.00;98789.52;180117;1259;45868;-61
2023/12/25 08:43:23;;;;;;;4.20;1.10;;;;;;;10.97;100.00;98796.40;180316;1259;58971;-61
2023/12/25 08:47:59;;;;;;;1.00;0.50;;;;;;;11.02;100.00;98805.16;180317;1259;45942;-61
2023/12/25 08:52:03;;;;;;;0.90;0.40;;;;;;;11.08;100.00;98808.41;178338;1263;46127;-88
2023/12/25 08:56:07;;;;;;;0.50;0.30;;;;;;;11.11;100.00;98810.52;178989;1264;44562;-85
2023/12/25 09:00:11;;;;;;;1.30;0.70;;;;;;;11.11;100.00;98824.52;178130;1265;46143;-88
2023/12/25 09:04:15;;;;;;;1.60;0.70;;;;;;;11.16;100.00;98833.20;178848;1263;57235;-86
2023/12/25 09:08:21;;;;;;;1.40;0.90;;;;;;;11.21;100.00;98843.39;178257;1263;46012;-86
2023/12/25 09:12:25;;;;;;;1.70;0.80;;;;;;;11.20;100.00;98844.39;179703;1263;46113;-89
2023/12/25 09:21:05;;;;;;;1.40;0.90;;;;;;;11.18;100.00;98850.20;144937;1250;91680;-83
2023/12/25 09:25:08;;;;;;;0.90;0.60;;;;;;;11.24;100.00;98847.95;180680;1257;58307;-84
2023/12/25 09:29:12;;;;;;;3.90;0.90;;;;;;;11.31;100.00;98846.02;178927;1257;46070;-84
2023/12/25 09:33:16;;;;;;;3.90;0.80;;;;;;;11.36;100.00;98842.05;179289;1257;45924;-83
2023/12/25 09:37:25;;;;;;;1.40;0.50;;;;;;;11.44;100.00;98837.54;178762;1259;46011;-84
2023/12/25 09:41:32;;;;;;;1.30;0.40;;;;;;;11.45;100.00;98836.52;178943;1260;46005;-82
2023/12/25 09:45:37;;;;;;;2.00;0.90;;;;;;;11.47;100.00;98826.92;179416;1257;59422;-84
2023/12/25 09:49:44;;;;;;;1.20;0.60;;;;;;;11.53;100.00;98826.24;180061;1258;44311;-85
2023/12/25 09:53:48;;;;;;;2.40;1.10;;;;;;;11.60;100.00;98830.51;178951;1259;45996;-85
2023/12/25 09:57:52;;;;;;;1.90;1.00;;;;;;;11.67;100.00;98819.09;178737;1257;46020;-83
2023/12/25 10:01:57;;;;;;;0.60;0.40;;;;;;;11.74;100.00;98820.42;178637;1258;45987;-84
2023/12/25 10:06:02;;;;;;;0.40;0.10;;;;;;;11.74;100.00;98819.19;178879;1257;58555;-82
2023/12/25 10:10:08;;;;;;;1.10;0.70;;;;;;;11.73;100.00;98822.69;178720;1257;45873;-84
2023/12/25 10:14:12;;;;;;;1.10;0.60;;;;;;;11.68;100.00;98814.50;178883;1257;44298;-86
2023/12/25 10:18:15;;;;;;;2.40;0.60;;;;;;;11.67;100.00;98842.67;178689;1260;46115;-85
2023/12/25 10:22:28;;;;;;;1.30;0.40;;;;;;;11.70;100.00;98830.95;178593;1256;45960;-85
2023/12/25 10:26:32;;;;;;;1.20;0.70;;;;;;;11.79;100.00;98848.13;178797;1257;57450;-84
2023/12/25 10:30:35;;;;;;;0.90;0.70;;;;;;;11.89;100.00;98855.33;179365;1257;45984;-85
2023/12/25 10:34:39;;;;;;;0.90;0.80;;;;;;;12.02;100.00;98851.09;180782;1257;44182;-79
2023/12/25 10:38:44;;;;;;;0.70;0.50;;;;;;;12.14;100.00;98847.01;180301;1260;44100;-83
2023/12/25 10:42:49;;;;;;;1.50;0.50;;;;;;;12.22;100.00;98862.67;178901;1258;45887;-83
2023/12/25 10:46:53;;;;;;;0.20;0.20;;;;;;;12.31;100.00;98861.11;178708;1257;57507;-84
2023/12/25 10:50:58;;;;;;;0.20;0.20;;;;;;;12.36;100.00;98850.55;179422;1257;44463;-84
2023/12/25 10:55:02;;;;;;;0.50;0.40;;;;;;;12.39;100.00;98856.48;178128;1262;46204;-85
2023/12/25 10:59:25;;;;;;;1.10;0.60;;;;;;;12.39;100.00;98865.15;178298;1257;46007;-84
2023/12/25 11:03:29;;;;;;;1.50;0.60;;;;;;;12.46;100.00;98874.02;179326;1257;44085;-84
2023/12/25 11:07:32;;;;;;;3.60;0.80;;;;;;;12.53;100.00;98877.90;178844;1259;58844;-83
2023/12/25 11:11:41;;;;;;;1.20;0.70;;;;;;;12.47;100.00;98892.55;177934;1259;46130;-80
2023/12/25 11:15:44;;;;;;;1.30;0.40;;;;;;;12.38;100.00;98895.83;178902;1257;46009;-84
2023/12/25 11:19:47;;;;;;;1.90;1.20;;;;;;;12.30;100.00;98897.98;179099;1259;45933;-86
2023/12/25 11:23:51;;;;;;;1.00;1.00;;;;;;;12.23;100.00;98885.96;178887;1262;46009;-82
2023/12/25 11:27:55;;;;;;;3.10;1.20;;;;;;;12.27;100.00;98887.11;178524;1258;58243;-81
2023/12/25 11:32:09;;;;;;;0.90;0.70;;;;;;;12.33;100.00;98871.08;179209;1260;46073;-83
2023/12/25 11:36:14;;;;;;;1.10;0.50;;;;;;;12.41;100.00;98882.01;178772;1260;46185;-83
2023/12/25 11:40:18;;;;;;;0.90;0.60;;;;;;;12.42;100.00;98881.27;177877;1256;45980;-85
2023/12/25 11:44:33;;;;;;;0.90;0.40;;;;;;;12.46;100.00;98898.92;178582;1260;45956;-87
2023/12/25 11:48:37;;;;;;;2.10;1.20;;;;;;;12.43;100.00;98898.86;179542;1256;58291;-85
2023/12/25 11:52:46;;;;;;;2.50;1.10;;;;;;;12.41;100.00;98905.68;179131;1257;46021;-86
2023/12/25 11:56:50;;;;;;;1.50;0.60;;;;;;;12.39;100.00;98900.77;178851;1256;45968;-84
2023/12/25 12:00:53;;;;;;;2.00;0.90;;;;;;;12.39;100.00;98899.65;179256;1258;45858;-85
2023/12/25 12:05:24;;;;;;;2.40;1.20;;;;;;;12.43;100.00;98900.63;179316;1257;90205;-67
2023/12/25 12:09:27;;;;;;;1.60;0.70;;;;;;;12.44;100.00;98909.51;179589;1261;58859;-76
2023/12/25 12:13:32;;;;;;;1.60;0.90;;;;;;;12.42;100.00;98922.78;179401;1259;45915;-70
2023/12/25 12:17:36;;;;;;;1.70;1.00;;;;;;;12.42;100.00;98920.68;179772;1260;44955;-68
2023/12/25 12:21:43;;;;;;;1.70;0.90;;;;;;;12.42;100.00;98930.15;179803;1257;46049;-67
2023/12/25 12:25:47;;;;;;;1.40;0.90;;;;;;;12.35;100.00;98927.62;179590;1258;44818;-68
2023/12/25 12:29:50;;;;;;;3.60;1.00;;;;;;;12.40;100.00;98931.73;179492;1261;58728;-70
2023/12/25 12:33:54;;;;;;;0.80;0.80;;;;;;;12.37;100.00;98925.45;179770;1260;43970;-67
2023/12/25 12:38:05;;;;;;;4.50;1.10;;;;;;;12.38;100.00;98934.85;179684;1261;44794;-72
2023/12/25 12:42:11;;;;;;;2.10;0.70;;;;;;;12.25;100.00;98935.22;179735;1257;43773;-68
2023/12/25 12:46:18;;;;;;;2.80;0.60;;;;;;;12.17;100.00;98935.33;179656;1263;45461;-68
2023/12/25 12:50:22;;;;;;;3.00;0.70;;;;;;;12.04;100.00;98956.05;179721;1261;58432;-71
2023/12/25 12:54:25;;;;;;;1.80;0.50;;;;;;;12.03;100.00;98948.45;179662;1260;45961;-68
2023/12/25 12:58:29;;;;;;;2.60;0.90;;;;;;;11.95;100.00;98960.73;179745;1260;46102;-73
2023/12/25 13:02:34;;;;;;;6.60;1.10;;;;;;;11.90;100.00;98958.48;179681;1258;45961;-67
2023/12/25 13:06:38;;;;;;;1.40;0.50;;;;;;;11.89;100.00;98967.64;179637;1258;43795;-71
2023/12/25 13:10:42;;;;;;;1.60;0.80;;;;;;;11.93;100.00;98973.30;179734;1261;59409;-66
2023/12/25 13:14:48;;;;;;;1.50;1.00;;;;;;;11.94;100.00;98978.09;179909;1258;43918;-68
2023/12/25 13:18:52;;;;;;;2.80;1.00;;;;;;;11.93;100.00;98991.55;179507;1261;43834;-72
2023/12/25 13:22:56;;;;;;;1.60;1.00;;;;;;;11.93;100.00;99009.11;179288;1261;45983;-71
2023/12/25 13:27:03;;;;;;;1.80;1.10;;;;;;;11.92;100.00;99015.60;179116;1259;43765;-68
2023/12/25 13:31:33;;;;;;;0.90;0.60;;;;;;;11.93;100.00;99025.13;179587;1259;58555;-69
2023/12/25 13:35:36;;;;;;;1.30;1.10;;;;;;;11.91;100.00;99024.64;179316;1260;44950;-68
2023/12/25 13:39:41;;;;;;;2.20;1.20;;;;;;;11.83;100.00;99012.46;179558;1262;44317;-71
2023/12/25 13:43:45;;;;;;;1.40;0.60;;;;;;;11.88;100.00;99032.26;179832;1257;43460;-68
2023/12/25 13:47:49;;;;;;;1.20;1.10;;;;;;;11.79;100.00;99022.39;180114;1257;46014;-70
2023/12/25 13:52:03;;;;;;;2.40;1.60;;;;;;;11.81;100.00;99035.15;179844;1259;58915;-68
2023/12/25 13:56:07;;;;;;;1.40;0.90;;;;;;;11.79;100.00;99035.88;180046;1262;43561;-67
2023/12/25 14:00:13;;;;;;;1.10;0.60;;;;;;;11.73;100.00;99041.98;179966;1259;46073;-69
2023/12/25 14:04:18;;;;;;;1.60;0.80;;;;;;;11.70;100.00;99049.27;180109;1259;44506;-69
2023/12/25 14:08:26;;;;;;;1.90;1.00;;;;;;;11.50;100.00;99038.54;180158;1260;46088;-68
2023/12/25 14:12:30;;;;;;;3.50;0.70;;;;;;;11.38;100.00;99048.73;180079;1260;58445;-68
2023/12/25 14:16:33;;;;;;;0.90;0.80;;;;;;;11.37;100.00;99049.36;180099;1260;45908;-67
2023/12/25 14:20:37;;;;;;;3.60;0.90;;;;;;;11.45;100.00;99056.24;180219;1259;43875;-67
2023/12/25 14:24:41;;;;;;;0.80;0.50;;;;;;;11.52;100.00;99074.59;180163;1259;43674;-67
2023/12/25 14:28:49;;;;;;;0.90;0.90;;;;;;;11.52;100.00;99073.11;180012;1260;43605;-67
2023/12/25 14:32:52;;;;;;;4.30;0.60;;;;;;;11.53;100.00;99065.05;180066;1260;58682;-67
2023/12/25 14:36:59;;;;;;;2.50;0.60;;;;;;;11.55;100.00;99083.06;180107;1259;45055;-67
2023/12/25 14:41:16;;;;;;;;;;;;;;;11.54;100.00;99101.54;179945;1260;43578;-68
2023/12/25 14:45:20;;;;;;;1.00;0.60;;;;;;;11.47;100.00;99080.23;179982;1258;45813;-70
2023/12/25 14:49:23;;;;;;;1.60;1.00;;;;;;;11.39;100.00;99088.73;180264;1260;43969;-67
2023/12/25 14:53:27;;;;;;;1.30;0.60;;;;;;;11.32;100.00;99094.40;180076;1260;58716;-69
2023/12/25 14:57:30;;;;;;;1.10;0.70;;;;;;;11.33;100.00;99107.12;180269;1263;46083;-68
2023/12/25 15:01:36;;;;;;;2.80;1.10;;;;;;;11.33;100.00;99113.67;180116;1259;43572;-67
2023/12/25 15:05:42;;;;;;;1.10;0.70;;;;;;;11.34;100.00;99117.04;179895;1260;45013;-67
2023/12/25 15:09:47;;;;;;;1.40;1.10;;;;;;;11.37;100.00;99125.86;180180;1260;43908;-67
2023/12/25 15:13:54;;;;;;;2.70;1.20;;;;;;;11.34;100.00;99124.33;180358;1260;58408;-66
2023/12/25 15:17:57;;;;;;;3.20;1.20;;;;;;;11.39;100.00;99138.27;180416;1259;43707;-66
2023/12/25 15:22:03;;;;;;;3.60;1.50;;;;;;;11.42;100.00;99135.94;180016;1260;384820;-65
2023/12/25 15:26:07;;;;;;;2.30;1.70;;;;;;;11.46;100.00;99136.23;180172;1260;44692;-68
2023/12/25 15:30:10;;;;;;;4.80;0.90;;;;;;;11.43;100.00;99122.67;180312;1259;46658;-66
2023/12/25 15:34:14;;;;;;;1.10;0.90;;;;;;;11.46;100.00;99124.58;180446;1259;58725;-66
2023/12/25 15:38:26;;;;;;;2.50;1.30;;;;;;;11.50;100.00;99136.38;180327;1259;45899;-67
2023/12/25 15:42:32;;;;;;;0.70;0.50;;;;;;;11.49;100.00;99146.89;180486;1259;46015;-65
2023/12/25 15:46:40;;;;;;;3.00;2.00;;;;;;;11.50;100.00;99158.31;180460;1260;43552;-68
2023/12/25 15:50:47;;;;;;;2.80;1.80;;;;;;;11.50;100.00;99166.17;180330;1259;45110;-66
2023/12/25 15:55:02;;;;;;;1.90;1.00;;;;;;;11.49;100.00;99161.87;180262;1257;58577;-66
2023/12/25 15:59:07;;;;;;;3.30;1.30;;;;;;;11.49;100.00;99153.55;180329;1257;44977;-66
2023/12/25 16:03:21;;;;;;;1.00;0.80;;;;;;;11.47;100.00;99158.33;180275;1260;45068;-66
2023/12/25 16:07:25;;;;;;;3.60;1.10;;;;;;;11.46;100.00;99149.73;180249;1259;44441;-66
2023/12/25 16:11:53;;;;;;;1.50;1.40;;;;;;;11.39;100.00;99157.89;180519;1259;43790;31
2023/12/25 16:15:57;;;;;;;2.80;1.40;;;;;;;11.42;100.00;99175.23;178552;1262;58358;-85
2023/12/25 16:20:01;;;;;;;2.50;1.40;;;;;;;11.43;100.00;99193.73;179220;1256;91555;-85
2023/12/25 16:24:06;;;;;;;2.90;0.70;;;;;;;11.38;100.00;99194.52;178425;1257;44077;-84
2023/12/25 16:28:09;;;;;;;2.70;1.70;;;;;;;11.35;100.00;99191.30;178924;1256;45897;-86
2023/12/25 16:32:12;;;;;;;2.00;0.90;;;;;;;11.36;100.00;99192.09;179151;1256;45955;-85
2023/12/25 16:36:16;;;;;;;2.20;1.60;;;;;;;11.36;100.00;99205.39;179158;1259;60124;-86
2023/12/25 16:40:19;;;;;;;1.50;0.80;;;;;;;11.38;100.00;99201.13;177908;1257;46045;-86
2023/12/25 16:44:23;;;;;;;2.40;1.40;;;;;;;11.35;100.00;99208.17;180768;1256;44983;-87
2023/12/25 16:48:26;;;;;;;2.50;1.20;;;;;;;11.32;100.00;99232.08;180908;1256;44168;-85
2023/12/25 16:52:30;;;;;;;1.40;1.00;;;;;;;11.32;100.00;99244.36;180368;1256;44072;-86
2023/12/25 16:56:33;;;;;;;1.50;0.80;;;;;;;11.34;100.00;99261.05;181109;1256;59199;-86
2023/12/25 17:00:36;;;;;;;2.10;0.90;;;;;;;11.32;100.00;99264.26;179291;1256;44125;-86
2023/12/25 17:04:40;;;;;;;2.40;1.90;;;;;;;11.32;100.00;99265.52;179784;1257;44204;-84
2023/12/25 17:08:43;;;;;;;1.20;0.70;;;;;;;11.27;100.00;99261.56;179746;1256;45904;-84
2023/12/25 17:12:47;;;;;;;2.10;1.40;;;;;;;11.24;100.00;99261.66;178721;1257;45958;-85
2023/12/25 17:16:50;;;;;;;3.70;1.70;;;;;;;11.24;100.00;99263.83;179224;1261;58069;-86
2023/12/25 17:20:54;;;;;;;0.90;0.70;;;;;;;11.20;100.00;99255.45;179629;1256;45849;-83
2023/12/25 17:24:57;;;;;;;1.60;1.10;;;;;;;11.20;100.00;99256.23;179133;1257;45932;-88
2023/12/25 17:29:00;;;;;;;1.70;0.80;;;;;;;11.24;100.00;99255.29;179555;1256;45916;-87
2023/12/25 17:33:05;;;;;;;1.80;0.80;;;;;;;11.26;100.00;99257.77;179315;1257;46098;-85
2023/12/25 17:37:09;;;;;;;1.80;0.60;;;;;;;11.25;100.00;99264.39;179819;1257;58742;-85
2023/12/25 17:41:13;;;;;;;2.80;2.20;;;;;;;11.26;100.00;99268.73;178947;1257;44149;-86
2023/12/25 17:45:17;;;;;;;1.90;1.30;;;;;;;11.26;100.00;99273.99;178773;1256;46543;-84
2023/12/25 17:49:20;;;;;;;1.30;0.60;;;;;;;11.26;100.00;99276.71;180224;1257;45953;-83
2023/12/25 17:53:23;;;;;;;2.00;0.70;;;;;;;11.23;100.00;99273.27;178696;1257;46130;-85
2023/12/25 17:57:27;;;;;;;2.00;0.70;;;;;;;11.22;100.00;99271.50;178487;1257;57558;-87
2023/12/25 18:01:30;;;;;;;2.20;0.50;;;;;;;11.15;100.00;99269.81;181189;1256;44877;-82
2023/12/25 18:05:34;;;;;;;1.20;0.80;;;;;;;11.14;100.00;99270.64;180099;1257;43985;-87
2023/12/25 18:09:38;;;;;;;1.30;0.40;;;;;;;11.12;100.00;99280.02;179317;1257;44195;-85
2023/12/25 18:13:41;;;;;;;1.30;0.70;;;;;;;11.12;100.00;99300.77;179079;1257;46263;-86
2023/12/25 18:17:44;;;;;;;0.60;0.50;;;;;;;11.12;100.00;99307.42;178841;1257;60905;-86
2023/12/25 18:21:48;;;;;;;1.80;0.80;;;;;;;11.12;100.00;99305.58;177985;1256;45976;-87
2023/12/25 18:25:51;;;;;;;2.60;1.30;;;;;;;11.15;100.00;99311.17;178152;1256;45862;-86
2023/12/25 18:29:55;;;;;;;6.30;1.50;;;;;;;11.15;100.00;99320.39;179183;1256;46206;-87
2023/12/25 18:33:58;;;;;;;1.50;0.70;;;;;;;11.19;100.00;99321.65;178003;1257;45377;-87
2023/12/25 18:38:02;;;;;;;1.40;0.60;;;;;;;11.21;100.00;99322.50;178857;1257;57525;-88
2023/12/25 18:42:08;;;;;;;2.20;1.00;;;;;;;11.22;100.00;99321.99;178469;1257;46134;-82
2023/12/25 18:46:12;;;;;;;3.50;1.10;;;;;;;11.24;100.00;99320.01;178338;1257;44463;-84
2023/12/25 18:50:16;;;;;;;2.30;0.90;;;;;;;11.23;100.00;99319.42;178750;1256;44164;-83
2023/12/25 18:54:19;;;;;;;1.80;0.80;;;;;;;11.22;100.00;99322.41;178492;1256;46130;-85